createdAt,value
2022-09-02T00:01:38.004Z,13.80
2022-09-02T00:04:09.430Z,13.70
2022-09-02T00:06:38.136Z,13.70
2022-09-02T00:09:07.240Z,13.70
2022-09-02T00:11:37.165Z,13.60
2022-09-02T00:14:10.951Z,13.60
2022-09-02T00:16:42.035Z,13.70
2022-09-02T00:19:11.028Z,13.60
2022-09-02T00:21:39.051Z,13.60
2022-09-02T00:24:08.595Z,13.60
2022-09-02T00:26:36.643Z,13.60
2022-09-02T00:29:05.560Z,13.50
2022-09-02T00:31:36.551Z,13.50
2022-09-02T00:34:07.396Z,13.60
2022-09-02T00:36:35.669Z,13.50
2022-09-02T00:39:05.449Z,13.50
2022-09-02T00:41:33.906Z,13.50
2022-09-02T00:44:04.510Z,13.40
2022-09-02T00:46:34.214Z,13.40
2022-09-02T00:49:06.432Z,13.30
2022-09-02T00:51:38.824Z,13.30
2022-09-02T00:54:07.510Z,13.30
2022-09-02T00:56:39.343Z,13.20
2022-09-02T00:59:08.961Z,13.20
2022-09-02T01:01:37.246Z,13.20
2022-09-02T01:04:07.651Z,13.10
2022-09-02T01:06:35.909Z,13.10
2022-09-02T01:09:08.574Z,13.00
2022-09-02T01:11:42.815Z,13.10
2022-09-02T01:14:13.566Z,13.00
2022-09-02T01:16:44.020Z,13.00
2022-09-02T01:19:21.863Z,13.00
2022-09-02T01:21:52.321Z,13.00
2022-09-02T01:24:22.546Z,13.00
2022-09-02T01:26:54.027Z,13.00
2022-09-02T01:29:23.980Z,13.10
2022-09-02T01:31:52.923Z,13.10
2022-09-02T01:34:22.787Z,13.10
2022-09-02T01:36:53.037Z,13.20
2022-09-02T01:39:21.300Z,13.20
2022-09-02T01:41:49.437Z,13.20
2022-09-02T01:44:17.719Z,13.20
2022-09-02T01:46:46.983Z,13.20
2022-09-02T01:49:15.406Z,13.20
2022-09-02T01:51:44.629Z,13.20
2022-09-02T01:54:14.502Z,13.20
2022-09-02T01:56:44.039Z,13.20
2022-09-02T01:59:17.666Z,13.10
2022-09-02T02:01:46.735Z,13.10
2022-09-02T02:04:15.957Z,13.10
2022-09-02T02:06:47.367Z,13.10
2022-09-02T02:09:19.521Z,13.00
2022-09-02T02:11:49.310Z,13.00
2022-09-02T02:14:18.236Z,13.00
2022-09-02T02:16:49.483Z,12.80
2022-09-02T02:19:17.513Z,12.80
2022-09-02T02:21:45.525Z,12.70
2022-09-02T02:24:13.590Z,12.80
2022-09-02T02:26:43.286Z,12.80
2022-09-02T02:29:11.979Z,12.70
2022-09-02T02:31:41.221Z,12.80
2022-09-02T02:34:10.479Z,12.80
2022-09-02T02:36:38.827Z,12.80
2022-09-02T02:39:09.041Z,12.70
2022-09-02T02:41:37.776Z,12.70
2022-09-02T02:44:08.509Z,12.70
2022-09-02T02:46:38.583Z,12.60
2022-09-02T02:49:07.372Z,12.60
2022-09-02T02:51:36.315Z,12.60
2022-09-02T02:54:05.253Z,12.50
2022-09-02T02:56:33.605Z,12.50
2022-09-02T02:59:04.387Z,12.40
2022-09-02T03:01:35.406Z,12.40
2022-09-02T03:04:06.007Z,12.40
2022-09-02T03:06:35.685Z,12.40
2022-09-02T03:09:05.350Z,12.40
2022-09-02T03:11:33.522Z,12.30
2022-09-02T03:14:02.286Z,12.30
2022-09-02T03:16:30.381Z,12.30
2022-09-02T03:18:59.816Z,12.20
2022-09-02T03:21:27.835Z,12.10
2022-09-02T03:23:56.194Z,12.20
2022-09-02T03:26:26.762Z,12.20
2022-09-02T03:28:56.062Z,12.20
2022-09-02T03:31:26.409Z,12.20
2022-09-02T03:33:56.562Z,12.20
2022-09-02T03:36:29.547Z,12.20
2022-09-02T03:38:58.465Z,12.20
2022-09-02T03:41:29.003Z,12.20
2022-09-02T03:43:59.097Z,12.20
2022-09-02T03:46:29.535Z,12.20
2022-09-02T03:48:58.259Z,12.20
2022-09-02T03:51:28.618Z,12.20
2022-09-02T03:53:56.778Z,12.20
2022-09-02T03:56:26.734Z,12.10
2022-09-02T03:58:55.444Z,12.10
2022-09-02T04:01:34.485Z,12.10
2022-09-02T04:04:04.922Z,12.10
2022-09-02T04:06:36.687Z,12.10
2022-09-02T04:09:05.799Z,12.00
2022-09-02T04:11:35.079Z,12.00
2022-09-02T04:14:03.069Z,12.00
2022-09-02T04:16:32.094Z,12.00
2022-09-02T04:19:05.907Z,12.00
2022-09-02T04:21:37.108Z,11.90
2022-09-02T04:24:05.585Z,11.90
2022-09-02T04:26:34.671Z,11.90
2022-09-02T04:29:02.936Z,11.90
2022-09-02T04:31:35.510Z,11.80
2022-09-02T04:34:04.951Z,11.80
2022-09-02T04:36:33.068Z,11.80
2022-09-02T04:39:09.344Z,11.80
2022-09-02T04:41:38.816Z,11.70
2022-09-02T04:44:10.705Z,11.70
2022-09-02T04:46:41.999Z,11.60
2022-09-02T04:49:14.938Z,11.60
2022-09-02T04:51:44.873Z,11.50
2022-09-02T04:54:14.656Z,11.50
2022-09-02T04:56:45.310Z,11.40
2022-09-02T04:59:14.249Z,11.40
2022-09-02T05:01:50.490Z,11.50
2022-09-02T05:04:23.954Z,11.60
2022-09-02T05:06:54.624Z,11.60
2022-09-02T05:09:25.234Z,11.60
2022-09-02T05:11:58.327Z,11.60
2022-09-02T05:14:31.447Z,11.60
2022-09-02T05:17:07.236Z,11.60
2022-09-02T05:19:38.039Z,11.60
2022-09-02T05:22:06.321Z,11.60
2022-09-02T05:24:39.894Z,11.60
2022-09-02T05:27:12.985Z,11.60
2022-09-02T05:29:45.219Z,11.60
2022-09-02T05:32:14.369Z,11.70
2022-09-02T05:34:43.712Z,11.80
2022-09-02T05:37:12.466Z,11.80
2022-09-02T05:39:41.883Z,11.90
2022-09-02T05:42:10.712Z,12.00
2022-09-02T05:44:42.223Z,12.00
2022-09-02T05:47:10.193Z,12.20
2022-09-02T05:49:39.729Z,12.30
2022-09-02T05:52:14.413Z,12.40
2022-09-02T05:54:49.201Z,12.50
2022-09-02T05:57:19.708Z,12.60
2022-09-02T06:00:04.426Z,12.80
2022-09-02T06:02:52.204Z,12.90
2022-09-02T06:05:26.155Z,13.10
2022-09-02T06:08:01.582Z,13.20
2022-09-02T06:10:32.260Z,13.40
2022-09-02T06:13:00.789Z,13.50
2022-09-02T06:15:32.410Z,13.70
2022-09-02T06:18:02.434Z,13.80
2022-09-02T06:20:32.577Z,14.00
2022-09-02T06:23:02.043Z,14.10
2022-09-02T06:25:30.045Z,14.30
2022-09-02T06:28:05.141Z,14.50
2022-09-02T06:30:36.179Z,14.60
2022-09-02T06:33:04.289Z,14.80
2022-09-02T06:35:37.763Z,15.00
2022-09-02T06:38:06.299Z,15.20
2022-09-02T06:40:34.576Z,15.30
2022-09-02T06:43:04.920Z,15.50
2022-09-02T06:45:40.725Z,15.80
2022-09-02T06:48:10.389Z,15.90
2022-09-02T06:50:42.762Z,16.00
2022-09-02T06:53:11.751Z,16.10
2022-09-02T06:55:44.705Z,16.20
2022-09-02T06:58:14.825Z,16.30
2022-09-02T07:00:43.315Z,16.40
2022-09-02T07:03:30.334Z,16.40
2022-09-02T07:06:09.446Z,16.60
2022-09-02T07:08:41.192Z,16.70
2022-09-02T07:11:16.457Z,16.80
2022-09-02T07:13:46.217Z,16.80
2022-09-02T07:16:26.725Z,16.90
2022-09-02T07:18:57.596Z,17.00
2022-09-02T07:21:26.183Z,17.00
2022-09-02T07:23:54.889Z,17.10
2022-09-02T07:26:23.658Z,17.20
2022-09-02T07:28:55.453Z,17.20
2022-09-02T07:31:25.126Z,17.30
2022-09-02T07:33:58.732Z,17.50
2022-09-02T07:36:27.914Z,17.50
2022-09-02T07:38:58.015Z,17.60
2022-09-02T07:41:26.624Z,17.60
2022-09-02T07:43:59.616Z,17.60
2022-09-02T07:46:29.904Z,17.70
2022-09-02T07:48:58.897Z,17.80
2022-09-02T07:51:30.725Z,17.90
2022-09-02T07:53:59.686Z,18.00
2022-09-02T07:56:28.059Z,18.00
2022-09-02T07:58:57.927Z,18.00
2022-09-02T08:01:26.405Z,18.10
2022-09-02T08:03:54.682Z,18.20
2022-09-02T08:06:34.579Z,18.20
2022-09-02T08:09:04.165Z,18.30
2022-09-02T08:11:32.799Z,18.40
2022-09-02T08:14:03.075Z,18.40
2022-09-02T08:16:31.636Z,18.50
2022-09-02T08:18:59.703Z,18.60
2022-09-02T08:21:27.697Z,18.60
2022-09-02T08:23:55.816Z,18.60
2022-09-02T08:26:23.958Z,18.70
2022-09-02T08:28:51.926Z,18.70
2022-09-02T08:31:21.477Z,18.80
2022-09-02T08:33:49.565Z,19.00
2022-09-02T08:36:17.606Z,19.00
2022-09-02T08:38:45.725Z,19.00
2022-09-02T08:41:18.832Z,19.10
2022-09-02T08:43:47.923Z,19.10
2022-09-02T08:46:18.422Z,19.30
2022-09-02T08:48:52.843Z,19.30
2022-09-02T08:51:26.125Z,19.50
2022-09-02T08:54:05.638Z,19.60
2022-09-02T08:56:33.593Z,19.70
2022-09-02T08:59:03.683Z,19.80
2022-09-02T09:01:44.336Z,19.90
2022-09-02T09:04:21.527Z,20.00
2022-09-02T09:07:08.696Z,20.30
2022-09-02T09:09:48.782Z,20.50
2022-09-02T09:12:23.560Z,20.50
2022-09-02T09:14:59.153Z,20.60
2022-09-02T09:17:31.809Z,20.80
2022-09-02T09:20:06.985Z,20.70
2022-09-02T09:22:38.335Z,20.80
2022-09-02T09:25:11.505Z,20.90
2022-09-02T09:27:39.640Z,21.00
2022-09-02T09:30:14.324Z,21.00
2022-09-02T09:32:46.471Z,21.20
2022-09-02T09:35:16.498Z,21.50
2022-09-02T09:37:47.920Z,21.70
2022-09-02T09:40:26.346Z,21.80
2022-09-02T09:42:57.841Z,22.00
2022-09-02T09:45:33.134Z,22.10
2022-09-02T09:48:23.865Z,22.20
2022-09-02T09:51:17.143Z,22.40
2022-09-02T09:53:45.766Z,22.60
2022-09-02T09:56:30.357Z,22.80
2022-09-02T09:58:58.424Z,23.00
2022-09-02T10:01:30.133Z,23.20
2022-09-02T10:04:00.863Z,23.50
2022-09-02T10:06:41.752Z,23.40
2022-09-02T10:09:33.378Z,23.60
2022-09-02T10:12:03.959Z,23.70
2022-09-02T10:14:36.470Z,23.90
2022-09-02T10:17:27.854Z,23.80
2022-09-02T10:20:04.624Z,23.80
2022-09-02T10:23:13.343Z,23.90
2022-09-02T10:25:52.957Z,23.80
2022-09-02T10:28:35.791Z,24.10
2022-09-02T10:31:11.166Z,24.50
2022-09-02T10:33:47.569Z,24.60
2022-09-02T10:36:25.184Z,24.80
2022-09-02T10:38:57.431Z,24.90
2022-09-02T10:44:32.908Z,25.50
2022-09-02T10:47:04.125Z,25.70
2022-09-02T10:50:04.346Z,25.70
2022-09-02T10:52:52.542Z,25.80
2022-09-02T10:55:30.292Z,26.00
2022-09-02T10:58:04.503Z,26.20
2022-09-02T11:00:36.046Z,26.20
2022-09-02T11:03:13.884Z,26.00
2022-09-02T11:05:48.020Z,25.70
2022-09-02T11:08:29.550Z,25.70
2022-09-02T11:11:08.354Z,25.80
2022-09-02T11:13:43.156Z,26.20
2022-09-02T11:16:17.283Z,26.50
2022-09-02T11:18:53.165Z,26.40
2022-09-02T11:21:32.068Z,26.70
2022-09-02T11:24:05.872Z,26.70
2022-09-02T11:26:40.474Z,26.70
2022-09-02T11:29:15.014Z,26.70
2022-09-02T11:31:47.995Z,26.60
2022-09-02T11:34:27.415Z,26.60
2022-09-02T11:36:57.271Z,26.60
2022-09-02T11:39:51.489Z,26.80
2022-09-02T11:42:41.207Z,27.20
2022-09-02T11:45:29.695Z,27.20
2022-09-02T11:48:13.867Z,26.80
2022-09-02T11:51:07.955Z,26.80
2022-09-02T11:53:40.316Z,27.30
2022-09-02T11:56:15.941Z,27.70
2022-09-02T11:58:48.355Z,27.90
2022-09-02T12:01:32.383Z,27.80
2022-09-02T12:04:56.273Z,27.80
2022-09-02T12:07:32.136Z,27.70
2022-09-02T12:10:03.311Z,28.00
2022-09-02T12:13:03.272Z,28.20
2022-09-02T12:15:38.376Z,28.20
2022-09-02T12:18:31.926Z,28.40
2022-09-02T12:21:16.384Z,28.90
2022-09-02T12:24:22.153Z,28.80
2022-09-02T12:27:23.971Z,29.00
2022-09-02T12:29:53.262Z,29.20
2022-09-02T12:33:07.984Z,29.10
2022-09-02T12:35:54.900Z,28.80
2022-09-02T12:38:37.083Z,29.00
2022-09-02T12:41:23.198Z,29.20
2022-09-02T12:44:14.792Z,29.60
2022-09-02T12:47:07.459Z,30.40
2022-09-02T12:49:44.353Z,30.10
2022-09-02T12:52:30.973Z,29.60
2022-09-02T12:54:59.520Z,29.50
2022-09-02T12:57:40.247Z,29.70
2022-09-02T13:00:09.545Z,30.10
2022-09-02T13:02:53.628Z,30.50
2022-09-02T13:05:28.994Z,31.10
2022-09-02T13:08:31.474Z,31.00
2022-09-02T13:11:38.085Z,30.70
2022-09-02T13:14:55.957Z,31.00
2022-09-02T13:18:06.211Z,31.30
2022-09-02T13:20:56.117Z,31.00
2022-09-02T13:23:57.571Z,31.00
2022-09-02T13:27:11.118Z,30.70
2022-09-02T13:30:06.857Z,29.90
2022-09-02T13:32:35.567Z,30.20
2022-09-02T13:35:06.987Z,30.20
2022-09-02T13:37:37.625Z,30.10
2022-09-02T13:40:19.273Z,30.00
2022-09-02T13:42:51.653Z,30.60
2022-09-02T13:45:21.236Z,31.50
2022-09-02T13:47:51.775Z,31.50
2022-09-02T13:50:22.229Z,31.80
2022-09-02T13:55:49.796Z,31.60
2022-09-02T13:58:26.499Z,31.90
2022-09-02T14:00:58.466Z,32.70
2022-09-02T14:03:33.457Z,32.80
2022-09-02T14:06:03.631Z,32.70
2022-09-02T14:08:32.400Z,32.40
2022-09-02T14:11:07.315Z,31.90
2022-09-02T14:13:36.887Z,31.90
2022-09-02T14:16:29.307Z,31.50
2022-09-02T14:19:14.533Z,31.90
2022-09-02T14:21:48.107Z,32.50
2022-09-02T14:24:19.717Z,32.10
2022-09-02T14:26:52.663Z,31.90
2022-09-02T14:29:21.861Z,32.00
2022-09-02T14:32:10.019Z,32.00
2022-09-02T14:34:40.196Z,32.20
2022-09-02T14:37:21.596Z,32.50
2022-09-02T14:39:54.296Z,32.80
2022-09-02T14:42:26.257Z,32.70
2022-09-02T14:44:59.263Z,32.70
2022-09-02T14:47:28.170Z,32.50
2022-09-02T14:49:56.910Z,32.40
2022-09-02T14:52:27.763Z,32.40
2022-09-02T14:54:57.369Z,32.80
2022-09-02T14:57:32.559Z,32.90
2022-09-02T15:00:02.705Z,32.10
2022-09-02T15:02:33.707Z,32.40
2022-09-02T15:05:02.893Z,32.40
2022-09-02T15:07:31.097Z,32.80
2022-09-02T15:10:08.076Z,33.40
2022-09-02T15:12:49.462Z,33.20
2022-09-02T15:15:17.682Z,32.90
2022-09-02T15:17:46.095Z,32.60
2022-09-02T15:20:14.127Z,32.90
2022-09-02T15:22:42.877Z,33.60
2022-09-02T15:25:11.507Z,33.30
2022-09-02T15:27:41.567Z,32.80
2022-09-02T15:30:11.026Z,32.60
2022-09-02T15:32:40.017Z,32.30
2022-09-02T15:35:09.257Z,31.90
2022-09-02T15:37:38.209Z,32.00
2022-09-02T15:40:08.428Z,32.20
2022-09-02T15:42:36.583Z,32.40
2022-09-02T15:45:09.426Z,32.40
2022-09-02T15:47:38.495Z,31.80
2022-09-02T15:50:07.460Z,31.80
2022-09-02T15:52:36.714Z,31.90
2022-09-02T15:55:05.182Z,32.30
2022-09-02T15:57:33.173Z,31.50
2022-09-02T16:00:01.141Z,30.40
2022-09-02T16:02:30.614Z,29.60
2022-09-02T16:05:01.667Z,29.20
2022-09-02T16:07:29.696Z,28.90
2022-09-02T16:10:01.314Z,28.50
2022-09-02T16:12:31.559Z,28.40
2022-09-02T16:15:00.006Z,28.10
2022-09-02T16:17:28.190Z,27.50
2022-09-02T16:19:57.643Z,26.80
2022-09-02T16:22:27.372Z,26.50
2022-09-02T16:24:55.365Z,26.30
2022-09-02T16:27:37.349Z,26.10
2022-09-02T16:30:05.899Z,26.00
2022-09-02T16:32:33.977Z,25.80
2022-09-02T16:35:03.364Z,25.70
2022-09-02T16:37:31.415Z,25.70
2022-09-02T16:39:59.515Z,25.80
2022-09-02T16:42:27.589Z,25.80
2022-09-02T16:44:55.633Z,25.70
2022-09-02T16:47:24.920Z,25.50
2022-09-02T16:49:52.959Z,25.30
2022-09-02T16:52:22.374Z,25.00
2022-09-02T16:54:50.362Z,25.10
2022-09-02T16:57:18.302Z,25.10
2022-09-02T16:59:46.431Z,25.10
2022-09-02T17:02:14.482Z,25.10
2022-09-02T17:04:42.723Z,24.90
2022-09-02T17:07:10.694Z,24.90
2022-09-02T17:09:40.072Z,24.80
2022-09-02T17:12:08.517Z,24.70
2022-09-02T17:14:36.475Z,24.50
2022-09-02T17:17:04.564Z,24.40
2022-09-02T17:19:33.060Z,24.40
2022-09-02T17:22:01.422Z,24.40
2022-09-02T17:24:30.625Z,24.20
2022-09-02T17:27:01.219Z,24.10
2022-09-02T17:29:48.531Z,24.00
2022-09-02T17:32:17.647Z,23.90
2022-09-02T17:34:45.943Z,23.70
2022-09-02T17:37:13.914Z,23.60
2022-09-02T17:39:41.953Z,23.60
2022-09-02T17:42:10.434Z,23.50
2022-09-02T17:44:40.175Z,23.40
2022-09-02T17:47:10.027Z,23.20
2022-09-02T17:49:41.178Z,23.20
2022-09-02T17:52:10.209Z,23.10
2022-09-02T17:54:39.481Z,23.10
2022-09-02T17:57:23.592Z,23.00
2022-09-02T18:00:03.398Z,22.90
2022-09-02T18:02:59.914Z,22.80
2022-09-02T18:05:32.586Z,22.80
2022-09-02T18:08:05.826Z,22.70
2022-09-02T18:10:36.721Z,22.70
2022-09-02T18:13:08.004Z,22.60
2022-09-02T18:15:44.966Z,22.60
2022-09-02T18:18:16.893Z,22.50
2022-09-02T18:20:49.158Z,22.50
2022-09-02T18:23:41.607Z,22.40
2022-09-02T18:26:24.296Z,22.30
2022-09-02T18:29:05.884Z,22.30
2022-09-02T18:31:45.064Z,22.20
2022-09-02T18:34:34.221Z,22.10
2022-09-02T18:37:13.433Z,22.10
2022-09-02T18:40:02.006Z,22.00
2022-09-02T18:42:41.113Z,21.90
2022-09-02T18:45:21.334Z,21.90
2022-09-02T18:47:55.309Z,21.90
2022-09-02T18:50:47.626Z,21.70
2022-09-02T18:53:16.645Z,21.80
2022-09-02T18:55:46.628Z,21.80
2022-09-02T18:58:19.092Z,21.70
2022-09-02T19:00:53.051Z,21.60
2022-09-02T19:03:21.096Z,21.60
2022-09-02T19:05:49.217Z,21.50
2022-09-02T19:08:34.049Z,21.40
2022-09-02T19:11:05.225Z,21.40
2022-09-02T19:13:47.807Z,21.40
2022-09-02T19:16:21.147Z,21.40
2022-09-02T19:18:50.179Z,21.30
2022-09-02T19:21:21.082Z,21.20
2022-09-02T19:23:49.911Z,21.20
2022-09-02T19:26:18.610Z,21.20
2022-09-02T19:28:48.333Z,21.10
2022-09-02T19:31:23.602Z,21.00
2022-09-02T19:33:54.121Z,21.00
2022-09-02T19:36:23.622Z,21.00
2022-09-02T19:38:54.379Z,20.90
2022-09-02T19:41:23.943Z,20.90
2022-09-02T19:43:53.957Z,20.80
2022-09-02T19:47:04.008Z,20.80
2022-09-02T19:49:11.570Z,20.80
2022-09-02T19:51:39.577Z,20.70
2022-09-02T19:54:08.567Z,20.60
2022-09-02T19:56:38.018Z,20.60
2022-09-02T19:59:06.443Z,20.60
2022-09-02T20:01:36.340Z,20.60
2022-09-02T20:04:04.918Z,20.50
2022-09-02T20:06:33.035Z,20.50
2022-09-02T20:09:01.060Z,20.50
2022-09-02T20:11:29.008Z,20.40
2022-09-02T20:13:57.207Z,20.40
2022-09-02T20:16:28.870Z,20.30
2022-09-02T20:18:58.240Z,20.30
2022-09-02T20:21:28.145Z,20.30
2022-09-02T20:23:59.996Z,20.20
2022-09-02T20:26:40.175Z,20.20
2022-09-02T20:29:29.597Z,20.20
2022-09-02T20:32:05.920Z,20.20
2022-09-02T20:34:47.468Z,20.10
2022-09-02T20:37:26.493Z,20.00
2022-09-02T20:40:13.525Z,19.90
2022-09-02T20:43:17.950Z,19.80
2022-09-02T20:45:55.557Z,19.70
2022-09-02T20:48:39.458Z,19.60
2022-09-02T20:51:13.098Z,19.50
2022-09-02T20:54:01.955Z,19.30
2022-09-02T20:56:37.556Z,19.20
2022-09-02T20:59:11.587Z,19.10
2022-09-02T21:01:42.500Z,18.90
2022-09-02T21:04:22.134Z,18.80
2022-09-02T21:06:59.065Z,18.80
2022-09-02T21:09:36.021Z,18.80
2022-09-02T21:12:11.804Z,18.70
2022-09-02T21:14:45.789Z,18.60
2022-09-02T21:17:17.477Z,18.60
2022-09-02T21:19:54.592Z,18.50
2022-09-02T21:22:28.640Z,18.40
2022-09-02T21:25:00.920Z,18.40
2022-09-02T21:27:35.707Z,18.30
2022-09-02T21:30:06.342Z,18.30
2022-09-02T21:32:38.237Z,18.30
2022-09-02T21:35:11.767Z,18.30
2022-09-02T21:37:45.220Z,18.30
2022-09-02T21:40:18.162Z,18.40
2022-09-02T21:43:01.007Z,18.50
2022-09-02T21:45:37.973Z,18.50
2022-09-02T21:48:20.174Z,18.50
2022-09-02T21:50:58.505Z,18.50
2022-09-02T21:53:44.873Z,18.50
2022-09-02T21:56:26.889Z,18.50
2022-09-02T21:59:11.615Z,18.50
2022-09-02T22:01:47.713Z,18.50
2022-09-02T22:04:31.396Z,18.60
2022-09-02T22:07:14.019Z,18.60
2022-09-02T22:09:43.608Z,18.60
2022-09-02T22:12:14.835Z,18.70
2022-09-02T22:14:48.074Z,18.60
2022-09-02T22:17:24.881Z,18.60
2022-09-02T22:19:57.758Z,18.60
2022-09-02T22:22:31.603Z,18.60
2022-09-02T22:25:04.949Z,18.50
2022-09-02T22:27:39.620Z,18.50
2022-09-02T22:30:11.095Z,18.50
2022-09-02T22:32:41.725Z,18.40
2022-09-02T22:35:18.458Z,18.40
2022-09-02T22:37:54.389Z,18.40
2022-09-02T22:40:26.732Z,18.30
2022-09-02T22:43:01.606Z,18.30
2022-09-02T22:46:03.726Z,18.30
2022-09-02T22:48:54.821Z,18.40
2022-09-02T22:51:47.349Z,18.40
2022-09-02T22:54:15.516Z,18.40
2022-09-02T22:56:52.962Z,18.30
2022-09-02T22:59:37.573Z,18.30
2022-09-02T23:02:15.574Z,18.30
2022-09-02T23:04:59.074Z,18.30
2022-09-02T23:07:27.034Z,18.20
2022-09-02T23:09:59.214Z,18.20
2022-09-02T23:12:37.352Z,18.20
2022-09-02T23:15:17.937Z,18.10
2022-09-02T23:17:57.284Z,18.10
2022-09-02T23:20:32.243Z,18.00
2022-09-02T23:23:24.575Z,17.80
2022-09-02T23:26:10.420Z,17.80
2022-09-02T23:28:58.066Z,17.70
2022-09-02T23:31:34.243Z,17.60
2022-09-02T23:34:13.563Z,17.50
2022-09-02T23:36:52.312Z,17.40
2022-09-02T23:39:49.043Z,17.30
2022-09-02T23:42:17.678Z,17.10
2022-09-02T23:44:47.988Z,17.00
2022-09-02T23:47:38.881Z,16.90
2022-09-02T23:50:22.576Z,16.90
2022-09-02T23:52:56.566Z,16.90
2022-09-02T23:55:35.507Z,16.80
2022-09-02T23:58:15.964Z,16.80
